createdAt,value
2019-03-08T00:02:18.216Z,0.90
2019-03-08T00:04:46.675Z,0.90
2019-03-08T00:07:15.152Z,1.20
2019-03-08T00:09:43.553Z,1.17
2019-03-08T00:12:12.139Z,1.20
2019-03-08T00:14:40.531Z,1.00
2019-03-08T00:17:08.925Z,1.50
2019-03-08T00:19:37.386Z,1.20
2019-03-08T00:22:08.002Z,0.97
2019-03-08T00:24:36.413Z,1.30
2019-03-08T00:27:04.991Z,1.17
2019-03-08T00:29:33.395Z,1.70
2019-03-08T00:32:01.863Z,1.40
2019-03-08T00:34:30.243Z,1.20
2019-03-08T00:36:58.637Z,1.30
2019-03-08T00:39:27.025Z,1.70
2019-03-08T00:41:55.625Z,1.20
2019-03-08T00:44:24.011Z,1.13
2019-03-08T00:46:52.426Z,1.20
2019-03-08T00:49:20.811Z,1.30
2019-03-08T00:51:49.213Z,1.37
2019-03-08T00:54:17.617Z,1.50
2019-03-08T00:56:46.298Z,1.10
2019-03-08T00:59:14.673Z,1.10
2019-03-08T01:01:43.105Z,1.50
2019-03-08T01:04:11.563Z,1.40
2019-03-08T01:06:39.972Z,1.60
2019-03-08T01:09:08.749Z,1.30
2019-03-08T01:11:37.476Z,1.20
2019-03-08T01:14:05.854Z,1.47
2019-03-08T01:16:34.272Z,1.07
2019-03-08T01:19:02.928Z,1.07
2019-03-08T01:21:31.343Z,0.90
2019-03-08T01:23:59.735Z,0.73
2019-03-08T01:26:28.419Z,0.67
2019-03-08T01:28:56.801Z,1.07
2019-03-08T01:31:25.211Z,1.00
2019-03-08T01:33:53.593Z,0.70
2019-03-08T01:36:22.413Z,1.10
2019-03-08T01:38:50.874Z,0.73
2019-03-08T01:41:19.455Z,0.93
2019-03-08T01:43:47.894Z,0.90
2019-03-08T01:46:16.335Z,0.90
2019-03-08T01:48:44.732Z,0.67
2019-03-08T01:51:13.133Z,0.93
2019-03-08T01:53:41.572Z,0.70
2019-03-08T01:56:10.217Z,0.67
2019-03-08T01:58:38.609Z,1.17
2019-03-08T02:01:07.020Z,0.80
2019-03-08T02:03:35.409Z,0.63
2019-03-08T02:06:03.890Z,0.77
2019-03-08T02:08:32.356Z,0.60
2019-03-08T02:11:00.917Z,0.70
2019-03-08T02:13:29.323Z,0.67
2019-03-08T02:15:57.728Z,0.70
2019-03-08T02:18:26.131Z,0.53
2019-03-08T02:20:54.519Z,0.60
2019-03-08T02:23:22.934Z,0.40
2019-03-08T02:25:51.595Z,0.80
2019-03-08T02:28:20.003Z,0.70
2019-03-08T02:30:49.281Z,0.73
2019-03-08T02:33:17.704Z,0.70
2019-03-08T02:35:46.157Z,0.50
2019-03-08T02:38:14.562Z,0.53
2019-03-08T02:40:43.223Z,0.50
2019-03-08T02:43:13.657Z,0.40
2019-03-08T02:45:42.054Z,0.67
2019-03-08T02:48:10.549Z,0.53
2019-03-08T02:50:39.074Z,0.43
2019-03-08T02:53:07.474Z,0.60
2019-03-08T02:55:36.205Z,0.47
2019-03-08T02:58:04.862Z,0.50
2019-03-08T03:00:36.348Z,0.50
2019-03-08T03:03:04.752Z,0.57
2019-03-08T03:05:34.028Z,0.40
2019-03-08T03:08:02.711Z,0.40
2019-03-08T03:10:31.094Z,0.30
2019-03-08T03:12:59.498Z,0.33
2019-03-08T03:15:27.895Z,0.40
2019-03-08T03:17:56.317Z,0.60
2019-03-08T03:20:24.697Z,0.40
2019-03-08T03:22:53.393Z,0.40
2019-03-08T03:25:21.841Z,0.37
2019-03-08T03:27:50.250Z,0.40
2019-03-08T03:30:20.759Z,0.40
2019-03-08T03:32:51.925Z,0.37
2019-03-08T03:35:20.408Z,0.40
2019-03-08T03:37:49.094Z,1.07
2019-03-08T03:40:18.621Z,0.40
2019-03-08T03:42:47.014Z,0.50
2019-03-08T03:45:19.633Z,0.47
2019-03-08T03:47:48.204Z,0.40
2019-03-08T03:50:18.406Z,0.40
2019-03-08T03:52:47.195Z,0.40
2019-03-08T03:55:18.791Z,0.47
2019-03-08T03:57:47.179Z,0.50
2019-03-08T04:00:21.298Z,0.70
2019-03-08T04:02:49.698Z,0.40
2019-03-08T04:05:18.184Z,0.50
2019-03-08T04:07:46.598Z,0.40
2019-03-08T04:10:15.997Z,0.50
2019-03-08T04:12:44.388Z,0.60
2019-03-08T04:15:15.873Z,0.50
2019-03-08T04:17:44.539Z,0.40
2019-03-08T04:20:15.351Z,0.50
2019-03-08T04:22:43.755Z,0.90
2019-03-08T04:25:13.564Z,1.23
2019-03-08T04:27:41.971Z,0.43
2019-03-08T04:30:13.335Z,0.53
2019-03-08T04:32:41.824Z,3.10
2019-03-08T04:35:10.273Z,16.83
2019-03-08T04:37:38.686Z,0.57
2019-03-08T04:40:09.725Z,0.47
2019-03-08T04:42:38.147Z,0.67
2019-03-08T04:45:14.776Z,0.57
2019-03-08T04:47:43.182Z,0.60
2019-03-08T04:50:12.806Z,0.80
2019-03-08T04:52:41.224Z,0.60
2019-03-08T04:55:17.848Z,0.90
2019-03-08T04:57:46.985Z,0.50
2019-03-08T05:00:16.701Z,0.90
2019-03-08T05:02:45.116Z,0.50
2019-03-08T05:05:13.629Z,0.50
2019-03-08T05:07:42.116Z,0.43
2019-03-08T05:10:13.579Z,0.80
2019-03-08T05:12:42.262Z,0.93
2019-03-08T05:15:10.800Z,4.37
2019-03-08T05:17:39.224Z,2.27
2019-03-08T05:20:09.443Z,1.10
2019-03-08T05:22:37.859Z,2.23
2019-03-08T05:25:08.487Z,1.57
2019-03-08T05:27:36.890Z,2.20
2019-03-08T05:30:10.704Z,0.80
2019-03-08T05:32:39.103Z,0.93
2019-03-08T05:35:08.740Z,1.20
2019-03-08T05:37:37.152Z,1.00
2019-03-08T05:40:08.844Z,1.30
2019-03-08T05:42:37.260Z,0.77
2019-03-08T05:45:13.790Z,0.70
2019-03-08T05:47:42.268Z,0.70
2019-03-08T05:50:11.533Z,0.60
2019-03-08T05:52:40.289Z,0.60
2019-03-08T05:55:10.019Z,0.50
2019-03-08T05:57:38.443Z,0.70
2019-03-08T06:00:35.246Z,0.67
2019-03-08T06:03:02.966Z,1.13
2019-03-08T06:05:31.363Z,0.93
2019-03-08T06:07:59.849Z,0.70
2019-03-08T06:10:30.463Z,1.70
2019-03-08T06:12:59.730Z,4.60
2019-03-08T06:15:28.185Z,2.67
2019-03-08T06:17:56.944Z,3.90
2019-03-08T06:20:25.352Z,4.43
2019-03-08T06:23:13.086Z,4.70
2019-03-08T06:25:41.564Z,6.67
2019-03-08T06:28:10.028Z,3.20
2019-03-08T06:30:38.437Z,1.70
2019-03-08T06:33:06.853Z,0.80
2019-03-08T06:35:35.269Z,11.87
2019-03-08T06:38:03.739Z,7.07
2019-03-08T06:40:32.135Z,9.43
2019-03-08T06:43:00.551Z,14.83
2019-03-08T06:45:29.222Z,25.67
2019-03-08T06:47:57.635Z,17.80
2019-03-08T06:50:26.044Z,14.17
2019-03-08T06:52:54.455Z,5.37
2019-03-08T06:55:22.826Z,2.10
2019-03-08T06:58:02.595Z,3.03
2019-03-08T07:00:41.378Z,1.87
2019-03-08T07:03:09.846Z,1.20
2019-03-08T07:05:38.221Z,0.90
2019-03-08T07:08:06.926Z,0.80
2019-03-08T07:10:35.310Z,1.17
2019-03-08T07:13:04.020Z,0.80
2019-03-08T07:15:32.495Z,1.93
2019-03-08T07:18:00.892Z,0.70
2019-03-08T07:20:47.125Z,0.73
2019-03-08T07:23:17.337Z,0.80
2019-03-08T07:25:51.488Z,0.83
2019-03-08T07:28:27.880Z,0.90
2019-03-08T07:31:00.645Z,0.80
2019-03-08T07:33:30.683Z,0.83
2019-03-08T07:36:00.723Z,1.30
2019-03-08T07:38:33.767Z,0.70
2019-03-08T07:41:09.272Z,6.47
2019-03-08T07:43:47.830Z,0.77
2019-03-08T07:46:23.872Z,0.90
2019-03-08T07:48:56.933Z,1.03
2019-03-08T07:51:35.984Z,1.10
2019-03-08T07:54:08.759Z,2.20
2019-03-08T07:56:44.530Z,0.90
2019-03-08T07:59:20.050Z,1.10
2019-03-08T08:02:02.131Z,2.33
2019-03-08T08:04:32.180Z,4.17
2019-03-08T08:07:07.995Z,1.40
2019-03-08T08:09:44.183Z,1.53
2019-03-08T08:12:17.286Z,0.87
2019-03-08T08:14:59.352Z,1.23
2019-03-08T08:17:44.658Z,1.10
2019-03-08T08:20:17.273Z,1.20
2019-03-08T08:22:49.981Z,1.37
2019-03-08T08:25:23.014Z,3.80
2019-03-08T08:27:53.047Z,1.00
2019-03-08T08:30:35.366Z,1.20
2019-03-08T08:33:17.588Z,0.80
2019-03-08T08:35:56.880Z,2.70
2019-03-08T08:38:43.373Z,0.87
2019-03-08T08:41:16.431Z,1.97
2019-03-08T08:43:49.419Z,1.30
2019-03-08T08:46:22.405Z,1.87
2019-03-08T08:49:08.793Z,2.70
2019-03-08T08:51:38.831Z,3.70
2019-03-08T08:54:14.865Z,6.23
2019-03-08T08:56:47.855Z,7.63
2019-03-08T08:59:34.277Z,4.07
2019-03-08T09:02:21.763Z,3.90
2019-03-08T09:04:54.804Z,9.23
2019-03-08T09:07:27.983Z,2.20
2019-03-08T09:10:10.017Z,2.23
2019-03-08T09:12:40.061Z,1.50
2019-03-08T09:15:15.787Z,1.50
2019-03-08T09:17:45.808Z,1.70
2019-03-08T09:20:30.949Z,2.20
2019-03-08T09:23:09.765Z,1.20
2019-03-08T09:25:42.509Z,5.83
2019-03-08T09:28:12.634Z,6.40
2019-03-08T09:30:48.398Z,2.07
2019-03-08T09:33:27.467Z,2.17
2019-03-08T09:35:57.524Z,1.50
2019-03-08T09:38:36.570Z,1.90
2019-03-08T09:41:12.131Z,1.23
2019-03-08T09:43:57.176Z,2.13
2019-03-08T09:46:33.424Z,1.40
2019-03-08T09:49:19.710Z,1.10
2019-03-08T09:51:55.483Z,1.53
2019-03-08T09:54:37.742Z,2.47
2019-03-08T09:57:24.100Z,3.40
2019-03-08T10:00:10.514Z,2.50
2019-03-08T10:02:55.777Z,2.30
2019-03-08T10:05:41.823Z,2.03
2019-03-08T10:08:11.869Z,1.70
2019-03-08T10:10:44.939Z,4.90
2019-03-08T10:13:15.069Z,6.13
2019-03-08T10:16:02.978Z,1.20
2019-03-08T10:18:33.021Z,1.30
2019-03-08T10:21:09.197Z,0.97
2019-03-08T10:23:51.310Z,0.93
2019-03-08T10:26:24.371Z,1.57
2019-03-08T10:28:54.408Z,2.37
2019-03-08T10:34:26.771Z,2.07
2019-03-08T10:37:12.837Z,1.20
2019-03-08T10:39:51.392Z,2.83
2019-03-08T10:42:24.365Z,0.80
2019-03-08T10:44:56.891Z,1.17
2019-03-08T10:47:26.935Z,2.17
2019-03-08T10:49:59.460Z,1.10
2019-03-08T10:52:32.203Z,1.50
2019-03-08T10:55:07.992Z,1.10
2019-03-08T10:57:38.021Z,1.20
2019-03-08T11:00:14.053Z,1.30
2019-03-08T11:02:50.094Z,0.97
2019-03-08T11:05:36.091Z,1.00
2019-03-08T11:08:06.199Z,1.17
2019-03-08T11:10:36.253Z,1.30
2019-03-08T11:13:15.437Z,1.37
2019-03-08T11:15:51.193Z,1.70
2019-03-08T11:18:27.127Z,1.40
2019-03-08T11:21:14.977Z,0.90
2019-03-08T11:23:54.250Z,1.17
2019-03-08T11:26:26.990Z,1.10
2019-03-08T11:29:32.852Z,1.27
2019-03-08T11:32:23.298Z,1.13
2019-03-08T11:34:55.998Z,1.00
2019-03-08T11:37:27.824Z,1.77
2019-03-08T11:40:07.040Z,1.03
2019-03-08T11:42:40.261Z,1.23
2019-03-08T11:45:10.564Z,0.93
2019-03-08T11:47:40.610Z,0.83
2019-03-08T11:50:11.909Z,0.90
2019-03-08T11:53:00.316Z,1.23
2019-03-08T11:55:42.291Z,1.60
2019-03-08T11:58:24.761Z,0.83
2019-03-08T12:01:12.895Z,1.20
2019-03-08T12:03:43.200Z,2.00
2019-03-08T12:06:16.081Z,2.90
2019-03-08T12:08:52.362Z,1.27
2019-03-08T12:11:37.765Z,0.93
2019-03-08T12:14:19.955Z,1.40
2019-03-08T12:17:06.242Z,1.00
2019-03-08T12:19:52.508Z,1.00
2019-03-08T12:22:31.377Z,1.00
2019-03-08T12:25:17.747Z,1.00
2019-03-08T12:27:53.375Z,1.27
2019-03-08T12:30:35.219Z,1.20
2019-03-08T12:33:10.897Z,2.10
2019-03-08T12:35:52.794Z,5.43
2019-03-08T12:38:22.886Z,1.00
2019-03-08T12:41:09.458Z,4.10
2019-03-08T12:43:46.423Z,1.40
2019-03-08T12:46:16.546Z,2.33
2019-03-08T12:48:55.364Z,1.20
2019-03-08T12:51:25.424Z,1.33
2019-03-08T12:54:11.516Z,5.63
2019-03-08T12:56:57.919Z,1.13
2019-03-08T12:59:44.611Z,1.30
2019-03-08T13:02:17.630Z,1.10
2019-03-08T13:05:03.738Z,1.67
2019-03-08T13:07:50.190Z,1.50
2019-03-08T13:10:18.587Z,1.27
2019-03-08T13:12:47.202Z,1.43
2019-03-08T13:15:16.151Z,1.20
2019-03-08T13:17:44.553Z,1.13
2019-03-08T13:20:17.775Z,1.30
2019-03-08T13:22:46.191Z,1.10
2019-03-08T13:25:14.855Z,0.90
2019-03-08T13:27:43.352Z,1.17
2019-03-08T13:30:22.586Z,1.10
2019-03-08T13:32:50.989Z,1.07
2019-03-08T13:35:19.377Z,1.50
2019-03-08T13:37:47.799Z,1.10
2019-03-08T13:40:16.732Z,1.30
2019-03-08T13:42:45.151Z,1.00
2019-03-08T13:45:21.414Z,1.00
2019-03-08T13:47:49.826Z,1.07
2019-03-08T13:50:18.304Z,1.50
2019-03-08T13:52:47.065Z,0.87
2019-03-08T13:55:16.717Z,1.40
2019-03-08T13:57:45.199Z,1.30
2019-03-08T14:00:18.857Z,1.27
2019-03-08T14:02:47.272Z,1.07
2019-03-08T14:05:15.913Z,1.10
2019-03-08T14:07:44.399Z,1.10
2019-03-08T14:10:18.025Z,0.97
2019-03-08T14:12:46.442Z,1.10
2019-03-08T14:15:16.093Z,1.00
2019-03-08T14:17:44.517Z,1.57
2019-03-08T14:20:24.736Z,2.70
2019-03-08T14:22:53.153Z,1.73
2019-03-08T14:25:21.870Z,1.77
2019-03-08T14:27:50.275Z,1.40
2019-03-08T14:30:24.173Z,1.20
2019-03-08T14:32:52.603Z,1.47
2019-03-08T14:35:21.256Z,1.40
2019-03-08T14:37:52.438Z,1.27
2019-03-08T14:40:27.041Z,1.10
2019-03-08T14:43:16.914Z,1.40
2019-03-08T14:46:04.845Z,1.53
2019-03-08T14:48:33.259Z,1.60
2019-03-08T14:51:01.743Z,1.53
2019-03-08T14:53:32.762Z,2.53
2019-03-08T14:56:00.595Z,1.60
2019-03-08T14:58:32.546Z,1.60
2019-03-08T15:01:02.159Z,1.97
2019-03-08T15:03:29.248Z,1.70
2019-03-08T15:05:59.259Z,1.67
2019-03-08T15:08:27.742Z,1.63
2019-03-08T15:10:56.155Z,1.43
2019-03-08T15:13:25.818Z,1.53
2019-03-08T15:15:58.101Z,1.70
2019-03-08T15:18:25.917Z,1.47
2019-03-08T15:20:54.878Z,1.50
2019-03-08T15:23:27.505Z,1.80
2019-03-08T15:25:55.815Z,1.63
2019-03-08T15:28:24.214Z,1.67
2019-03-08T15:30:52.633Z,2.00
2019-03-08T15:33:21.038Z,1.53
2019-03-08T15:35:49.434Z,2.10
2019-03-08T15:38:17.840Z,4.50
2019-03-08T15:40:48.760Z,2.37
2019-03-08T15:43:17.389Z,1.30
2019-03-08T15:45:46.191Z,1.23
2019-03-08T15:48:15.874Z,1.13
2019-03-08T15:50:46.862Z,1.03
2019-03-08T15:53:14.529Z,1.00
2019-03-08T15:55:52.242Z,1.27
2019-03-08T15:58:13.364Z,1.00
2019-03-08T16:00:42.129Z,0.80
2019-03-08T16:03:10.535Z,0.70
2019-03-08T16:05:38.988Z,1.40
2019-03-08T16:08:07.401Z,1.00
2019-03-08T16:10:35.845Z,0.93
2019-03-08T16:13:04.221Z,1.00
2019-03-08T16:15:32.699Z,0.90
2019-03-08T16:18:01.103Z,0.73
2019-03-08T16:20:29.491Z,1.07
2019-03-08T16:22:58.083Z,1.30
2019-03-08T16:25:26.490Z,1.27
2019-03-08T16:27:54.881Z,1.30
2019-03-08T16:30:33.489Z,0.97
2019-03-08T16:33:24.440Z,1.03
2019-03-08T16:35:56.011Z,1.17
2019-03-08T16:38:25.849Z,1.20
2019-03-08T16:41:12.011Z,1.33
2019-03-08T16:43:46.623Z,1.20
2019-03-08T16:46:16.501Z,2.20
2019-03-08T16:48:58.464Z,1.77
2019-03-08T16:51:37.287Z,2.20
2019-03-08T16:54:23.456Z,3.07
2019-03-08T16:56:56.737Z,1.00
2019-03-08T16:59:26.758Z,1.33
2019-03-08T17:01:56.818Z,1.60
2019-03-08T17:04:41.895Z,1.50
2019-03-08T17:07:14.878Z,2.60
2019-03-08T17:09:50.390Z,2.57
2019-03-08T17:12:22.921Z,1.70
2019-03-08T17:14:52.959Z,1.90
2019-03-08T17:17:23.011Z,1.93
2019-03-08T17:19:59.087Z,2.50
2019-03-08T17:22:29.143Z,6.80
2019-03-08T17:25:16.746Z,1.90
2019-03-08T17:27:46.939Z,1.27
2019-03-08T17:30:18.822Z,1.77
2019-03-08T17:32:57.627Z,2.10
2019-03-08T17:35:30.603Z,2.53
2019-03-08T17:38:12.576Z,3.83
2019-03-08T17:40:54.198Z,4.70
2019-03-08T17:43:29.994Z,5.63
2019-03-08T17:46:11.719Z,4.90
2019-03-08T17:48:41.757Z,3.13
2019-03-08T17:51:20.760Z,2.63
2019-03-08T17:54:02.857Z,5.40
2019-03-08T17:56:49.355Z,4.43
2019-03-08T17:59:19.395Z,6.47
2019-03-08T18:02:05.459Z,4.40
2019-03-08T18:04:47.687Z,4.97
2019-03-08T18:07:20.469Z,7.90
2019-03-08T18:10:07.052Z,4.93
2019-03-08T18:12:49.346Z,4.30
2019-03-08T18:15:19.401Z,5.03
2019-03-08T18:17:52.355Z,7.40
2019-03-08T18:20:22.401Z,40.33
2019-03-08T18:22:58.305Z,19.43
2019-03-08T18:25:31.471Z,11.50
2019-03-08T18:28:07.676Z,8.67
2019-03-08T18:30:37.715Z,6.77
2019-03-08T18:33:10.519Z,4.70
2019-03-08T18:35:40.662Z,7.40
2019-03-08T18:38:27.235Z,13.73
2019-03-08T18:41:13.736Z,15.30
2019-03-08T18:43:56.025Z,11.47
2019-03-08T18:46:26.116Z,8.67
2019-03-08T18:48:56.320Z,10.70
2019-03-08T18:51:28.956Z,7.97
2019-03-08T18:54:02.014Z,27.40
2019-03-08T18:56:48.604Z,11.87
2019-03-08T18:59:21.458Z,11.23
2019-03-08T19:02:06.492Z,9.10
2019-03-08T19:04:45.433Z,9.23
2019-03-08T19:07:23.972Z,7.43
2019-03-08T19:09:54.007Z,6.27
2019-03-08T19:12:30.030Z,4.00
2019-03-08T19:15:00.442Z,3.83
2019-03-08T19:17:33.180Z,3.70
2019-03-08T19:20:12.455Z,6.70
2019-03-08T19:22:45.209Z,5.90
2019-03-08T19:25:15.312Z,8.83
2019-03-08T19:27:45.395Z,7.00
2019-03-08T19:30:29.123Z,7.13
2019-03-08T19:33:08.275Z,4.97
2019-03-08T19:35:54.453Z,4.57
2019-03-08T19:38:33.434Z,5.87
2019-03-08T19:41:19.095Z,7.50
2019-03-08T19:44:01.290Z,5.50
2019-03-08T19:46:46.369Z,4.03
2019-03-08T19:49:31.912Z,4.17
2019-03-08T19:52:04.736Z,4.00
2019-03-08T19:54:49.933Z,4.83
2019-03-08T19:57:36.168Z,4.20
2019-03-08T20:00:27.447Z,4.60
2019-03-08T20:03:00.007Z,9.50
2019-03-08T20:05:33.029Z,5.13
2019-03-08T20:08:22.425Z,4.00
2019-03-08T20:10:52.484Z,3.13
2019-03-08T20:13:28.230Z,3.93
2019-03-08T20:15:58.275Z,3.60
2019-03-08T20:18:37.369Z,4.00
2019-03-08T20:21:09.980Z,3.00
2019-03-08T20:23:40.026Z,5.30
2019-03-08T20:26:12.998Z,5.13
2019-03-08T20:28:45.739Z,4.60
2019-03-08T20:31:15.799Z,4.10
2019-03-08T20:33:55.089Z,4.50
2019-03-08T20:36:37.319Z,4.23
2019-03-08T20:39:10.784Z,3.60
2019-03-08T20:41:46.703Z,3.40
2019-03-08T20:44:36.095Z,3.20
2019-03-08T20:47:09.280Z,5.90
2019-03-08T20:49:37.681Z,3.90
2019-03-08T20:52:06.079Z,3.80
2019-03-08T20:54:34.770Z,4.10
2019-03-08T20:57:03.163Z,4.10
2019-03-08T20:59:31.575Z,4.50
2019-03-08T21:01:59.975Z,5.27
2019-03-08T21:04:28.386Z,3.00
2019-03-08T21:06:56.783Z,3.80
2019-03-08T21:09:25.187Z,3.53
2019-03-08T21:11:53.583Z,4.97
2019-03-08T21:14:21.987Z,4.93
2019-03-08T21:16:50.380Z,4.07
2019-03-08T21:19:18.799Z,5.83
2019-03-08T21:21:47.187Z,5.83
2019-03-08T21:24:15.591Z,3.70
2019-03-08T21:26:43.986Z,3.97
2019-03-08T21:29:12.378Z,6.20
2019-03-08T21:31:40.786Z,5.40
2019-03-08T21:34:09.196Z,6.33
2019-03-08T21:36:37.765Z,5.00
2019-03-08T21:39:06.614Z,4.70
2019-03-08T21:41:35.038Z,5.20
2019-03-08T21:44:03.436Z,4.30
2019-03-08T21:46:31.844Z,4.57
2019-03-08T21:49:00.225Z,4.50
2019-03-08T21:51:28.646Z,4.20
2019-03-08T21:53:57.027Z,4.13
2019-03-08T21:56:25.442Z,4.67
2019-03-08T21:58:53.839Z,4.70
2019-03-08T22:01:22.276Z,4.73
2019-03-08T22:03:52.584Z,5.03
2019-03-08T22:06:20.985Z,4.70
2019-03-08T22:11:56.610Z,3.50
2019-03-08T22:14:25.000Z,3.80
2019-03-08T22:16:53.419Z,2.90
2019-03-08T22:19:21.807Z,3.10
2019-03-08T22:21:50.219Z,3.50
2019-03-08T22:24:18.601Z,3.67
2019-03-08T22:26:47.011Z,3.03
2019-03-08T22:29:15.393Z,2.70
2019-03-08T22:31:45.725Z,5.03
2019-03-08T22:34:14.128Z,3.13
2019-03-08T22:36:42.917Z,3.10
2019-03-08T22:39:11.299Z,3.80
2019-03-08T22:41:39.703Z,2.63
2019-03-08T22:44:08.129Z,2.63
2019-03-08T22:46:45.014Z,3.00
2019-03-08T22:49:06.675Z,3.37
2019-03-08T22:51:35.065Z,3.03
2019-03-08T22:54:03.531Z,3.60
2019-03-08T22:56:31.923Z,3.10
2019-03-08T22:59:00.333Z,3.90
2019-03-08T23:01:39.971Z,3.20
2019-03-08T23:04:08.449Z,2.70
2019-03-08T23:06:36.855Z,2.97
2019-03-08T23:09:07.625Z,3.40
2019-03-08T23:11:36.035Z,3.30
2019-03-08T23:14:04.500Z,3.50
2019-03-08T23:16:32.931Z,3.37
2019-03-08T23:19:01.322Z,5.10
2019-03-08T23:21:29.729Z,4.90
2019-03-08T23:23:58.131Z,5.17
2019-03-08T23:26:26.893Z,6.33
2019-03-08T23:29:06.284Z,5.10
2019-03-08T23:31:39.315Z,4.47
2019-03-08T23:34:07.723Z,5.90
2019-03-08T23:36:36.117Z,4.80
2019-03-08T23:39:07.126Z,5.37
2019-03-08T23:41:35.704Z,5.87
2019-03-08T23:44:04.240Z,5.17
2019-03-08T23:46:32.643Z,6.10
2019-03-08T23:49:01.044Z,5.50
2019-03-08T23:51:29.488Z,7.10
2019-03-08T23:53:57.937Z,5.80
2019-03-08T23:56:26.357Z,5.47
2019-03-08T23:58:54.747Z,6.20
